sensor_id;sensor_type;location;lat;lon;timestamp;P1;durP1;ratioP1;P2;durP2;ratioP2
54125;SDS011;40360;52.992;6.796;2023-03-01T00:02:16;34.92;;;22.02;;
54125;SDS011;40360;52.992;6.796;2023-03-01T00:04:42;29.58;;;20.58;;
54125;SDS011;40360;52.992;6.796;2023-03-01T00:07:08;34.65;;;22.75;;
54125;SDS011;40360;52.992;6.796;2023-03-01T00:09:35;34.88;;;22.35;;
54125;SDS011;40360;52.992;6.796;2023-03-01T00:12:01;40.60;;;24.73;;
54125;SDS011;40360;52.992;6.796;2023-03-01T00:14:28;34.55;;;22.77;;
54125;SDS011;40360;52.992;6.796;2023-03-01T00:16:53;36.60;;;23.15;;
54125;SDS011;40360;52.992;6.796;2023-03-01T00:19:19;31.65;;;21.77;;
54125;SDS011;40360;52.992;6.796;2023-03-01T00:21:46;34.20;;;22.33;;
54125;SDS011;40360;52.992;6.796;2023-03-01T00:24:13;36.97;;;22.13;;
54125;SDS011;40360;52.992;6.796;2023-03-01T00:26:38;38.72;;;23.67;;
54125;SDS011;40360;52.992;6.796;2023-03-01T00:29:04;33.38;;;22.27;;
54125;SDS011;40360;52.992;6.796;2023-03-01T00:31:31;34.30;;;20.95;;
54125;SDS011;40360;52.992;6.796;2023-03-01T00:34:02;30.40;;;20.42;;
54125;SDS011;40360;52.992;6.796;2023-03-01T00:36:30;27.95;;;19.48;;
54125;SDS011;40360;52.992;6.796;2023-03-01T00:39:00;29.17;;;20.08;;
54125;SDS011;40360;52.992;6.796;2023-03-01T00:41:26;28.80;;;19.65;;
54125;SDS011;40360;52.992;6.796;2023-03-01T00:43:51;29.50;;;18.95;;
54125;SDS011;40360;52.992;6.796;2023-03-01T00:46:19;29.70;;;21.20;;
54125;SDS011;40360;52.992;6.796;2023-03-01T00:48:47;30.33;;;20.48;;
54125;SDS011;40360;52.992;6.796;2023-03-01T00:51:18;28.50;;;20.02;;
54125;SDS011;40360;52.992;6.796;2023-03-01T00:53:46;27.27;;;18.10;;
54125;SDS011;40360;52.992;6.796;2023-03-01T00:56:14;32.55;;;20.75;;
54125;SDS011;40360;52.992;6.796;2023-03-01T00:58:40;36.83;;;19.77;;
54125;SDS011;40360;52.992;6.796;2023-03-01T01:01:07;31.77;;;19.45;;
54125;SDS011;40360;52.992;6.796;2023-03-01T01:03:43;29.63;;;19.13;;
54125;SDS011;40360;52.992;6.796;2023-03-01T01:06:33;82.80;;;24.88;;
54125;SDS011;40360;52.992;6.796;2023-03-01T01:09:03;81.72;;;25.38;;
54125;SDS011;40360;52.992;6.796;2023-03-01T01:11:30;59.35;;;23.10;;
54125;SDS011;40360;52.992;6.796;2023-03-01T01:13:57;46.78;;;23.15;;
54125;SDS011;40360;52.992;6.796;2023-03-01T01:16:24;114.55;;;27.23;;
54125;SDS011;40360;52.992;6.796;2023-03-01T01:18:51;50.15;;;23.20;;
54125;SDS011;40360;52.992;6.796;2023-03-01T01:21:21;48.58;;;23.02;;
54125;SDS011;40360;52.992;6.796;2023-03-01T01:23:49;46.53;;;25.27;;
54125;SDS011;40360;52.992;6.796;2023-03-01T01:26:16;46.05;;;24.67;;
54125;SDS011;40360;52.992;6.796;2023-03-01T01:28:43;101.90;;;32.08;;
54125;SDS011;40360;52.992;6.796;2023-03-01T01:31:09;87.38;;;28.45;;
54125;SDS011;40360;52.992;6.796;2023-03-01T01:33:35;52.17;;;28.88;;
54125;SDS011;40360;52.992;6.796;2023-03-01T01:36:02;50.55;;;28.75;;
54125;SDS011;40360;52.992;6.796;2023-03-01T01:38:29;47.13;;;26.90;;
54125;SDS011;40360;52.992;6.796;2023-03-01T01:40:55;42.70;;;25.67;;
54125;SDS011;40360;52.992;6.796;2023-03-01T01:43:22;46.83;;;27.75;;
54125;SDS011;40360;52.992;6.796;2023-03-01T01:45:48;48.95;;;28.92;;
54125;SDS011;40360;52.992;6.796;2023-03-01T01:48:16;41.10;;;25.92;;
54125;SDS011;40360;52.992;6.796;2023-03-01T01:50:54;40.08;;;23.65;;
54125;SDS011;40360;52.992;6.796;2023-03-01T01:53:23;37.00;;;24.35;;
54125;SDS011;40360;52.992;6.796;2023-03-01T01:55:54;36.15;;;23.48;;
54125;SDS011;40360;52.992;6.796;2023-03-01T01:58:23;31.88;;;22.02;;
54125;SDS011;40360;52.992;6.796;2023-03-01T02:00:52;39.03;;;25.55;;
54125;SDS011;40360;52.992;6.796;2023-03-01T02:03:20;33.45;;;22.27;;
54125;SDS011;40360;52.992;6.796;2023-03-01T02:05:55;33.78;;;21.10;;
54125;SDS011;40360;52.992;6.796;2023-03-01T02:08:26;33.47;;;21.88;;
54125;SDS011;40360;52.992;6.796;2023-03-01T02:10:55;32.88;;;21.23;;
54125;SDS011;40360;52.992;6.796;2023-03-01T02:13:22;35.97;;;23.38;;
54125;SDS011;40360;52.992;6.796;2023-03-01T02:15:48;34.15;;;22.55;;
54125;SDS011;40360;52.992;6.796;2023-03-01T02:18:15;35.58;;;22.88;;
54125;SDS011;40360;52.992;6.796;2023-03-01T02:20:44;38.38;;;22.38;;
54125;SDS011;40360;52.992;6.796;2023-03-01T02:23:25;33.97;;;22.20;;
54125;SDS011;40360;52.992;6.796;2023-03-01T02:31:05;34.75;;;19.75;;
54125;SDS011;40360;52.992;6.796;2023-03-01T02:33:51;38.10;;;22.27;;
54125;SDS011;40360;52.992;6.796;2023-03-01T02:36:22;36.05;;;22.95;;
54125;SDS011;40360;52.992;6.796;2023-03-01T02:38:51;37.10;;;21.88;;
54125;SDS011;40360;52.992;6.796;2023-03-01T02:41:20;35.92;;;22.17;;
54125;SDS011;40360;52.992;6.796;2023-03-01T02:43:47;32.35;;;22.05;;
54125;SDS011;40360;52.992;6.796;2023-03-01T02:46:15;38.38;;;23.15;;
54125;SDS011;40360;52.992;6.796;2023-03-01T02:48:45;34.85;;;22.13;;
54125;SDS011;40360;52.992;6.796;2023-03-01T02:51:18;41.40;;;26.02;;
54125;SDS011;40360;52.992;6.796;2023-03-01T02:54:20;32.90;;;21.60;;
54125;SDS011;40360;52.992;6.796;2023-03-01T02:56:52;36.97;;;22.38;;
54125;SDS011;40360;52.992;6.796;2023-03-01T02:59:19;31.40;;;19.00;;
54125;SDS011;40360;52.992;6.796;2023-03-01T03:01:47;29.33;;;19.77;;
54125;SDS011;40360;52.992;6.796;2023-03-01T03:04:14;28.92;;;18.75;;
54125;SDS011;40360;52.992;6.796;2023-03-01T03:06:45;32.03;;;19.33;;
54125;SDS011;40360;52.992;6.796;2023-03-01T03:09:12;30.92;;;19.98;;
54125;SDS011;40360;52.992;6.796;2023-03-01T03:11:39;30.00;;;19.52;;
54125;SDS011;40360;52.992;6.796;2023-03-01T03:14:06;27.27;;;18.90;;
54125;SDS011;40360;52.992;6.796;2023-03-01T03:16:39;28.95;;;18.63;;
54125;SDS011;40360;52.992;6.796;2023-03-01T03:19:09;29.45;;;18.85;;
54125;SDS011;40360;52.992;6.796;2023-03-01T03:21:34;30.45;;;19.55;;
54125;SDS011;40360;52.992;6.796;2023-03-01T03:24:01;36.78;;;21.02;;
54125;SDS011;40360;52.992;6.796;2023-03-01T03:26:26;29.10;;;18.80;;
54125;SDS011;40360;52.992;6.796;2023-03-01T03:28:52;31.00;;;20.45;;
54125;SDS011;40360;52.992;6.796;2023-03-01T03:31:18;38.63;;;23.52;;
54125;SDS011;40360;52.992;6.796;2023-03-01T03:33:45;36.72;;;22.70;;
54125;SDS011;40360;52.992;6.796;2023-03-01T03:36:15;30.27;;;20.90;;
54125;SDS011;40360;52.992;6.796;2023-03-01T03:38:42;34.92;;;21.88;;
54125;SDS011;40360;52.992;6.796;2023-03-01T03:41:08;46.83;;;26.23;;
54125;SDS011;40360;52.992;6.796;2023-03-01T03:43:36;43.30;;;25.17;;
54125;SDS011;40360;52.992;6.796;2023-03-01T03:46:03;43.13;;;24.88;;
54125;SDS011;40360;52.992;6.796;2023-03-01T03:48:36;57.53;;;28.70;;
54125;SDS011;40360;52.992;6.796;2023-03-01T03:51:03;168.55;;;34.63;;
54125;SDS011;40360;52.992;6.796;2023-03-01T03:53:30;83.85;;;27.80;;
54125;SDS011;40360;52.992;6.796;2023-03-01T03:55:57;61.13;;;26.23;;
54125;SDS011;40360;52.992;6.796;2023-03-01T03:58:23;41.38;;;24.27;;
54125;SDS011;40360;52.992;6.796;2023-03-01T04:00:52;38.42;;;23.85;;
54125;SDS011;40360;52.992;6.796;2023-03-01T04:03:21;38.63;;;23.63;;
54125;SDS011;40360;52.992;6.796;2023-03-01T04:05:49;33.20;;;22.10;;
54125;SDS011;40360;52.992;6.796;2023-03-01T04:08:16;34.05;;;23.38;;
54125;SDS011;40360;52.992;6.796;2023-03-01T04:10:45;37.97;;;22.40;;
54125;SDS011;40360;52.992;6.796;2023-03-01T04:13:16;30.83;;;21.65;;
54125;SDS011;40360;52.992;6.796;2023-03-01T04:15:44;32.13;;;19.73;;
54125;SDS011;40360;52.992;6.796;2023-03-01T04:18:14;34.00;;;21.15;;
54125;SDS011;40360;52.992;6.796;2023-03-01T04:20:41;35.90;;;22.00;;
54125;SDS011;40360;52.992;6.796;2023-03-01T04:23:12;34.30;;;23.45;;
54125;SDS011;40360;52.992;6.796;2023-03-01T04:25:46;37.15;;;21.10;;
54125;SDS011;40360;52.992;6.796;2023-03-01T04:28:14;35.25;;;21.45;;
54125;SDS011;40360;52.992;6.796;2023-03-01T04:30:40;40.53;;;24.27;;
54125;SDS011;40360;52.992;6.796;2023-03-01T04:33:06;34.95;;;21.52;;
54125;SDS011;40360;52.992;6.796;2023-03-01T04:35:34;36.30;;;23.17;;
54125;SDS011;40360;52.992;6.796;2023-03-01T04:38:00;37.75;;;23.05;;
54125;SDS011;40360;52.992;6.796;2023-03-01T04:40:26;32.72;;;21.77;;
54125;SDS011;40360;52.992;6.796;2023-03-01T04:42:56;32.88;;;22.05;;
54125;SDS011;40360;52.992;6.796;2023-03-01T04:45:25;37.55;;;21.65;;
54125;SDS011;40360;52.992;6.796;2023-03-01T04:47:50;35.55;;;21.50;;
54125;SDS011;40360;52.992;6.796;2023-03-01T04:50:19;31.20;;;20.75;;
54125;SDS011;40360;52.992;6.796;2023-03-01T04:52:46;37.13;;;22.02;;
54125;SDS011;40360;52.992;6.796;2023-03-01T04:55:13;33.45;;;21.77;;
54125;SDS011;40360;52.992;6.796;2023-03-01T04:57:39;32.60;;;21.15;;
54125;SDS011;40360;52.992;6.796;2023-03-01T05:00:06;32.70;;;20.35;;
54125;SDS011;40360;52.992;6.796;2023-03-01T05:02:46;32.08;;;21.20;;
54125;SDS011;40360;52.992;6.796;2023-03-01T05:05:14;32.78;;;20.80;;
54125;SDS011;40360;52.992;6.796;2023-03-01T05:07:40;33.72;;;20.20;;
54125;SDS011;40360;52.992;6.796;2023-03-01T05:10:06;31.02;;;20.25;;
54125;SDS011;40360;52.992;6.796;2023-03-01T05:12:31;33.63;;;20.38;;
54125;SDS011;40360;52.992;6.796;2023-03-01T05:14:57;32.13;;;20.25;;
54125;SDS011;40360;52.992;6.796;2023-03-01T05:17:23;36.17;;;22.00;;
54125;SDS011;40360;52.992;6.796;2023-03-01T05:19:49;39.15;;;23.90;;
54125;SDS011;40360;52.992;6.796;2023-03-01T05:22:15;34.60;;;20.88;;
54125;SDS011;40360;52.992;6.796;2023-03-01T05:24:41;34.28;;;21.20;;
54125;SDS011;40360;52.992;6.796;2023-03-01T05:27:07;36.70;;;22.10;;
54125;SDS011;40360;52.992;6.796;2023-03-01T05:29:32;34.75;;;21.90;;
54125;SDS011;40360;52.992;6.796;2023-03-01T05:32:00;33.65;;;21.33;;
54125;SDS011;40360;52.992;6.796;2023-03-01T05:34:36;33.42;;;21.50;;
54125;SDS011;40360;52.992;6.796;2023-03-01T05:37:02;39.42;;;23.13;;
54125;SDS011;40360;52.992;6.796;2023-03-01T05:39:28;40.88;;;23.80;;
54125;SDS011;40360;52.992;6.796;2023-03-01T05:41:55;40.83;;;22.67;;
54125;SDS011;40360;52.992;6.796;2023-03-01T06:00:56;38.17;;;21.50;;
54125;SDS011;40360;52.992;6.796;2023-03-01T06:03:22;44.70;;;23.08;;
54125;SDS011;40360;52.992;6.796;2023-03-01T06:05:48;41.75;;;24.77;;
54125;SDS011;40360;52.992;6.796;2023-03-01T06:08:13;37.92;;;23.30;;
54125;SDS011;40360;52.992;6.796;2023-03-01T06:10:39;43.78;;;24.42;;
54125;SDS011;40360;52.992;6.796;2023-03-01T06:13:05;41.92;;;23.98;;
54125;SDS011;40360;52.992;6.796;2023-03-01T06:15:31;38.75;;;23.27;;
54125;SDS011;40360;52.992;6.796;2023-03-01T06:17:56;36.80;;;21.75;;
54125;SDS011;40360;52.992;6.796;2023-03-01T06:20:23;40.85;;;23.55;;
54125;SDS011;40360;52.992;6.796;2023-03-01T06:22:50;45.30;;;25.13;;
54125;SDS011;40360;52.992;6.796;2023-03-01T06:25:18;37.83;;;23.95;;
54125;SDS011;40360;52.992;6.796;2023-03-01T06:27:46;35.22;;;21.85;;
54125;SDS011;40360;52.992;6.796;2023-03-01T06:30:14;34.60;;;20.83;;
54125;SDS011;40360;52.992;6.796;2023-03-01T06:32:41;28.58;;;18.33;;
54125;SDS011;40360;52.992;6.796;2023-03-01T06:35:07;30.00;;;19.15;;
54125;SDS011;40360;52.992;6.796;2023-03-01T06:37:38;36.33;;;22.77;;
54125;SDS011;40360;52.992;6.796;2023-03-01T06:40:04;37.33;;;22.30;;
54125;SDS011;40360;52.992;6.796;2023-03-01T06:42:36;35.25;;;21.50;;
54125;SDS011;40360;52.992;6.796;2023-03-01T06:45:04;36.22;;;22.00;;
54125;SDS011;40360;52.992;6.796;2023-03-01T06:47:31;30.33;;;19.38;;
54125;SDS011;40360;52.992;6.796;2023-03-01T06:49:58;34.60;;;20.75;;
54125;SDS011;40360;52.992;6.796;2023-03-01T06:52:28;39.22;;;23.23;;
54125;SDS011;40360;52.992;6.796;2023-03-01T06:54:54;41.20;;;23.38;;
54125;SDS011;40360;52.992;6.796;2023-03-01T06:57:20;34.10;;;21.88;;
54125;SDS011;40360;52.992;6.796;2023-03-01T06:59:46;30.23;;;19.88;;
54125;SDS011;40360;52.992;6.796;2023-03-01T07:02:12;34.60;;;22.23;;
54125;SDS011;40360;52.992;6.796;2023-03-01T07:04:38;34.75;;;20.85;;
54125;SDS011;40360;52.992;6.796;2023-03-01T07:07:04;31.25;;;20.55;;
54125;SDS011;40360;52.992;6.796;2023-03-01T07:09:31;32.55;;;20.45;;
54125;SDS011;40360;52.992;6.796;2023-03-01T07:11:57;35.58;;;22.40;;
54125;SDS011;40360;52.992;6.796;2023-03-01T07:14:23;33.75;;;22.38;;
54125;SDS011;40360;52.992;6.796;2023-03-01T07:16:52;29.70;;;19.38;;
54125;SDS011;40360;52.992;6.796;2023-03-01T07:19:18;34.67;;;21.33;;
54125;SDS011;40360;52.992;6.796;2023-03-01T07:21:44;29.98;;;20.77;;
54125;SDS011;40360;52.992;6.796;2023-03-01T07:24:10;35.00;;;22.02;;
54125;SDS011;40360;52.992;6.796;2023-03-01T07:26:36;39.25;;;21.85;;
54125;SDS011;40360;52.992;6.796;2023-03-01T07:29:03;34.13;;;21.45;;
54125;SDS011;40360;52.992;6.796;2023-03-01T07:31:30;28.17;;;19.77;;
54125;SDS011;40360;52.992;6.796;2023-03-01T07:33:56;33.30;;;21.13;;
54125;SDS011;40360;52.992;6.796;2023-03-01T07:36:22;36.15;;;22.65;;
54125;SDS011;40360;52.992;6.796;2023-03-01T07:38:49;30.02;;;18.73;;
54125;SDS011;40360;52.992;6.796;2023-03-01T07:41:15;36.05;;;22.58;;
54125;SDS011;40360;52.992;6.796;2023-03-01T07:43:40;33.70;;;22.58;;
54125;SDS011;40360;52.992;6.796;2023-03-01T07:46:06;33.70;;;23.48;;
54125;SDS011;40360;52.992;6.796;2023-03-01T07:48:32;35.80;;;23.42;;
54125;SDS011;40360;52.992;6.796;2023-03-01T07:50:58;36.97;;;23.08;;
54125;SDS011;40360;52.992;6.796;2023-03-01T07:53:25;40.45;;;24.83;;
54125;SDS011;40360;52.992;6.796;2023-03-01T07:56:00;40.45;;;26.23;;
54125;SDS011;40360;52.992;6.796;2023-03-01T07:58:29;43.53;;;26.92;;
54125;SDS011;40360;52.992;6.796;2023-03-01T08:00:54;46.03;;;26.40;;
54125;SDS011;40360;52.992;6.796;2023-03-01T08:03:20;46.83;;;28.20;;
54125;SDS011;40360;52.992;6.796;2023-03-01T08:05:46;50.85;;;30.10;;
54125;SDS011;40360;52.992;6.796;2023-03-01T08:08:11;48.05;;;28.77;;
54125;SDS011;40360;52.992;6.796;2023-03-01T08:10:37;43.25;;;27.63;;
54125;SDS011;40360;52.992;6.796;2023-03-01T08:13:02;49.28;;;29.45;;
54125;SDS011;40360;52.992;6.796;2023-03-01T08:15:28;56.67;;;32.08;;
54125;SDS011;40360;52.992;6.796;2023-03-01T08:17:54;44.65;;;28.85;;
54125;SDS011;40360;52.992;6.796;2023-03-01T08:20:19;43.00;;;27.52;;
54125;SDS011;40360;52.992;6.796;2023-03-01T08:22:45;40.22;;;23.38;;
54125;SDS011;40360;52.992;6.796;2023-03-01T08:25:11;40.97;;;27.38;;
54125;SDS011;40360;52.992;6.796;2023-03-01T08:27:37;42.20;;;28.50;;
54125;SDS011;40360;52.992;6.796;2023-03-01T08:30:02;45.95;;;27.33;;
54125;SDS011;40360;52.992;6.796;2023-03-01T08:32:28;45.03;;;27.25;;
54125;SDS011;40360;52.992;6.796;2023-03-01T08:34:54;40.28;;;27.65;;
54125;SDS011;40360;52.992;6.796;2023-03-01T08:37:19;38.33;;;26.33;;
54125;SDS011;40360;52.992;6.796;2023-03-01T08:39:46;37.63;;;25.67;;
54125;SDS011;40360;52.992;6.796;2023-03-01T08:42:11;43.45;;;26.88;;
54125;SDS011;40360;52.992;6.796;2023-03-01T08:44:37;42.38;;;28.63;;
54125;SDS011;40360;52.992;6.796;2023-03-01T08:47:02;47.40;;;27.42;;
54125;SDS011;40360;52.992;6.796;2023-03-01T08:49:29;41.45;;;28.10;;
54125;SDS011;40360;52.992;6.796;2023-03-01T08:51:57;44.15;;;28.05;;
54125;SDS011;40360;52.992;6.796;2023-03-01T08:54:23;46.38;;;28.52;;
54125;SDS011;40360;52.992;6.796;2023-03-01T08:56:48;43.80;;;28.88;;
54125;SDS011;40360;52.992;6.796;2023-03-01T08:59:15;43.03;;;28.88;;
54125;SDS011;40360;52.992;6.796;2023-03-01T09:01:42;47.20;;;29.52;;
54125;SDS011;40360;52.992;6.796;2023-03-01T09:04:14;46.58;;;32.05;;
54125;SDS011;40360;52.992;6.796;2023-03-01T09:06:41;48.50;;;32.50;;
54125;SDS011;40360;52.992;6.796;2023-03-01T09:09:10;54.78;;;35.13;;
54125;SDS011;40360;52.992;6.796;2023-03-01T09:11:41;57.65;;;35.35;;
54125;SDS011;40360;52.992;6.796;2023-03-01T09:14:08;57.85;;;35.22;;
54125;SDS011;40360;52.992;6.796;2023-03-01T09:16:34;47.33;;;31.52;;
54125;SDS011;40360;52.992;6.796;2023-03-01T09:19:01;41.30;;;28.30;;
54125;SDS011;40360;52.992;6.796;2023-03-01T09:21:28;47.17;;;30.30;;
54125;SDS011;40360;52.992;6.796;2023-03-01T09:23:55;53.83;;;28.42;;
54125;SDS011;40360;52.992;6.796;2023-03-01T09:26:22;51.13;;;32.75;;
54125;SDS011;40360;52.992;6.796;2023-03-01T09:28:49;53.58;;;31.45;;
54125;SDS011;40360;52.992;6.796;2023-03-01T09:31:16;55.35;;;33.55;;
54125;SDS011;40360;52.992;6.796;2023-03-01T09:33:45;58.78;;;34.22;;
54125;SDS011;40360;52.992;6.796;2023-03-01T09:36:14;67.25;;;34.92;;
54125;SDS011;40360;52.992;6.796;2023-03-01T09:38:41;79.65;;;35.10;;
54125;SDS011;40360;52.992;6.796;2023-03-01T09:43:55;62.50;;;35.33;;
54125;SDS011;40360;52.992;6.796;2023-03-01T09:46:25;63.65;;;35.58;;
54125;SDS011;40360;52.992;6.796;2023-03-01T09:48:55;68.20;;;36.42;;
54125;SDS011;40360;52.992;6.796;2023-03-01T09:53:57;74.00;;;31.30;;
54125;SDS011;40360;52.992;6.796;2023-03-01T09:56:39;118.03;;;33.47;;
54125;SDS011;40360;52.992;6.796;2023-03-01T10:01:41;65.07;;;33.65;;
54125;SDS011;40360;52.992;6.796;2023-03-01T10:04:27;95.45;;;34.92;;
54125;SDS011;40360;52.992;6.796;2023-03-01T10:09:35;59.83;;;35.30;;
54125;SDS011;40360;52.992;6.796;2023-03-01T10:12:04;56.70;;;36.03;;
54125;SDS011;40360;52.992;6.796;2023-03-01T10:17:04;61.58;;;41.50;;
54125;SDS011;40360;52.992;6.796;2023-03-01T10:19:46;68.30;;;40.67;;
54125;SDS011;40360;52.992;6.796;2023-03-01T10:22:19;69.25;;;43.45;;
54125;SDS011;40360;52.992;6.796;2023-03-01T10:24:57;63.70;;;41.25;;
54125;SDS011;40360;52.992;6.796;2023-03-01T10:30:21;65.57;;;42.95;;
54125;SDS011;40360;52.992;6.796;2023-03-01T10:32:57;67.22;;;42.25;;
54125;SDS011;40360;52.992;6.796;2023-03-01T10:35:26;63.75;;;42.03;;
54125;SDS011;40360;52.992;6.796;2023-03-01T10:38:07;64.78;;;40.28;;
54125;SDS011;40360;52.992;6.796;2023-03-01T10:40:35;56.58;;;39.13;;
54125;SDS011;40360;52.992;6.796;2023-03-01T10:43:14;52.47;;;36.13;;
54125;SDS011;40360;52.992;6.796;2023-03-01T10:45:39;57.05;;;37.92;;
54125;SDS011;40360;52.992;6.796;2023-03-01T10:48:24;48.83;;;33.50;;
54125;SDS011;40360;52.992;6.796;2023-03-01T10:53:25;49.25;;;33.08;;
54125;SDS011;40360;52.992;6.796;2023-03-01T10:56:07;42.67;;;28.15;;
54125;SDS011;40360;52.992;6.796;2023-03-01T10:58:39;35.67;;;24.50;;
54125;SDS011;40360;52.992;6.796;2023-03-01T11:03:40;31.65;;;23.27;;
54125;SDS011;40360;52.992;6.796;2023-03-01T11:08:41;32.63;;;21.08;;
54125;SDS011;40360;52.992;6.796;2023-03-01T11:13:38;32.78;;;19.48;;
54125;SDS011;40360;52.992;6.796;2023-03-01T11:16:24;24.67;;;18.35;;
54125;SDS011;40360;52.992;6.796;2023-03-01T11:19:20;21.60;;;14.68;;
54125;SDS011;40360;52.992;6.796;2023-03-01T11:21:52;21.15;;;15.48;;
54125;SDS011;40360;52.992;6.796;2023-03-01T11:24:24;25.60;;;18.17;;
54125;SDS011;40360;52.992;6.796;2023-03-01T11:26:59;26.20;;;18.63;;
54125;SDS011;40360;52.992;6.796;2023-03-01T11:29:41;26.48;;;18.38;;
54125;SDS011;40360;52.992;6.796;2023-03-01T11:32:12;28.80;;;18.58;;
54125;SDS011;40360;52.992;6.796;2023-03-01T11:43:12;25.27;;;17.35;;
54125;SDS011;40360;52.992;6.796;2023-03-01T11:54:48;27.33;;;19.25;;
54125;SDS011;40360;52.992;6.796;2023-03-01T12:00:35;25.65;;;19.60;;
54125;SDS011;40360;52.992;6.796;2023-03-01T12:11:50;29.10;;;18.85;;
54125;SDS011;40360;52.992;6.796;2023-03-01T12:22:52;23.90;;;15.50;;
54125;SDS011;40360;52.992;6.796;2023-03-01T12:34:31;23.83;;;18.08;;
54125;SDS011;40360;52.992;6.796;2023-03-01T12:39:42;21.75;;;17.25;;
54125;SDS011;40360;52.992;6.796;2023-03-01T12:42:39;24.30;;;18.13;;
54125;SDS011;40360;52.992;6.796;2023-03-01T12:50:59;25.02;;;18.73;;
54125;SDS011;40360;52.992;6.796;2023-03-01T12:53:30;28.95;;;18.63;;
54125;SDS011;40360;52.992;6.796;2023-03-01T12:56:05;26.85;;;19.75;;
54125;SDS011;40360;52.992;6.796;2023-03-01T12:58:36;26.67;;;19.63;;
54125;SDS011;40360;52.992;6.796;2023-03-01T13:04:10;24.85;;;20.02;;
54125;SDS011;40360;52.992;6.796;2023-03-01T13:09:47;27.15;;;21.48;;
54125;SDS011;40360;52.992;6.796;2023-03-01T13:17:48;23.83;;;18.10;;
54125;SDS011;40360;52.992;6.796;2023-03-01T13:20:19;18.58;;;14.68;;
54125;SDS011;40360;52.992;6.796;2023-03-01T13:22:47;19.75;;;15.02;;
54125;SDS011;40360;52.992;6.796;2023-03-01T13:25:24;18.95;;;14.65;;
54125;SDS011;40360;52.992;6.796;2023-03-01T13:27:50;20.15;;;13.80;;
54125;SDS011;40360;52.992;6.796;2023-03-01T13:35:57;16.98;;;12.55;;
54125;SDS011;40360;52.992;6.796;2023-03-01T13:41:16;14.85;;;11.98;;
54125;SDS011;40360;52.992;6.796;2023-03-01T13:44:02;18.35;;;12.48;;
54125;SDS011;40360;52.992;6.796;2023-03-01T13:46:46;16.27;;;12.55;;
54125;SDS011;40360;52.992;6.796;2023-03-01T13:49:14;14.43;;;11.43;;
54125;SDS011;40360;52.992;6.796;2023-03-01T13:51:46;17.38;;;12.32;;
54125;SDS011;40360;52.992;6.796;2023-03-01T13:54:13;15.85;;;11.70;;
54125;SDS011;40360;52.992;6.796;2023-03-01T13:56:41;15.70;;;11.50;;
54125;SDS011;40360;52.992;6.796;2023-03-01T13:59:13;14.88;;;12.27;;
54125;SDS011;40360;52.992;6.796;2023-03-01T14:01:43;17.08;;;13.27;;
54125;SDS011;40360;52.992;6.796;2023-03-01T14:04:20;20.35;;;13.07;;
54125;SDS011;40360;52.992;6.796;2023-03-01T14:06:51;19.15;;;12.90;;
54125;SDS011;40360;52.992;6.796;2023-03-01T14:09:33;18.13;;;12.88;;
54125;SDS011;40360;52.992;6.796;2023-03-01T14:15:06;15.95;;;12.75;;
54125;SDS011;40360;52.992;6.796;2023-03-01T14:20:21;17.25;;;13.50;;
54125;SDS011;40360;52.992;6.796;2023-03-01T14:22:53;17.30;;;13.10;;
54125;SDS011;40360;52.992;6.796;2023-03-01T14:25:22;15.52;;;13.05;;
54125;SDS011;40360;52.992;6.796;2023-03-01T14:28:04;17.27;;;13.32;;
54125;SDS011;40360;52.992;6.796;2023-03-01T14:30:41;15.07;;;12.65;;
54125;SDS011;40360;52.992;6.796;2023-03-01T14:33:28;15.07;;;12.13;;
54125;SDS011;40360;52.992;6.796;2023-03-01T14:41:00;17.63;;;12.48;;
54125;SDS011;40360;52.992;6.796;2023-03-01T14:43:32;15.27;;;11.68;;
54125;SDS011;40360;52.992;6.796;2023-03-01T14:45:58;14.32;;;11.93;;
54125;SDS011;40360;52.992;6.796;2023-03-01T14:48:24;16.95;;;12.82;;
54125;SDS011;40360;52.992;6.796;2023-03-01T14:50:52;13.90;;;12.02;;
54125;SDS011;40360;52.992;6.796;2023-03-01T14:53:27;14.52;;;12.93;;
54125;SDS011;40360;52.992;6.796;2023-03-01T14:55:55;15.60;;;13.07;;
54125;SDS011;40360;52.992;6.796;2023-03-01T14:58:27;15.82;;;13.15;;
54125;SDS011;40360;52.992;6.796;2023-03-01T15:00:53;16.35;;;13.35;;
54125;SDS011;40360;52.992;6.796;2023-03-01T15:06:02;16.33;;;12.70;;
54125;SDS011;40360;52.992;6.796;2023-03-01T15:08:30;14.80;;;12.82;;
54125;SDS011;40360;52.992;6.796;2023-03-01T15:13:28;16.45;;;13.23;;
54125;SDS011;40360;52.992;6.796;2023-03-01T15:16:02;17.67;;;12.90;;
54125;SDS011;40360;52.992;6.796;2023-03-01T15:18:37;16.77;;;13.25;;
54125;SDS011;40360;52.992;6.796;2023-03-01T15:21:14;15.27;;;12.52;;
54125;SDS011;40360;52.992;6.796;2023-03-01T15:23:51;17.10;;;14.23;;
54125;SDS011;40360;52.992;6.796;2023-03-01T15:26:31;15.70;;;13.38;;
54125;SDS011;40360;52.992;6.796;2023-03-01T15:29:02;15.95;;;13.55;;
54125;SDS011;40360;52.992;6.796;2023-03-01T15:31:32;16.23;;;13.48;;
54125;SDS011;40360;52.992;6.796;2023-03-01T15:34:10;17.08;;;14.38;;
54125;SDS011;40360;52.992;6.796;2023-03-01T15:36:57;17.35;;;14.27;;
54125;SDS011;40360;52.992;6.796;2023-03-01T15:39:36;17.15;;;13.18;;
54125;SDS011;40360;52.992;6.796;2023-03-01T15:45:06;16.02;;;13.52;;
54125;SDS011;40360;52.992;6.796;2023-03-01T15:48:02;16.88;;;13.65;;
54125;SDS011;40360;52.992;6.796;2023-03-01T15:50:31;19.45;;;14.63;;
54125;SDS011;40360;52.992;6.796;2023-03-01T15:52:59;18.45;;;13.98;;
54125;SDS011;40360;52.992;6.796;2023-03-01T15:55:29;17.63;;;13.85;;
54125;SDS011;40360;52.992;6.796;2023-03-01T15:58:14;15.38;;;13.35;;
54125;SDS011;40360;52.992;6.796;2023-03-01T16:00:45;18.77;;;13.70;;
54125;SDS011;40360;52.992;6.796;2023-03-01T16:03:13;18.40;;;15.13;;
54125;SDS011;40360;52.992;6.796;2023-03-01T16:05:46;18.15;;;14.55;;
54125;SDS011;40360;52.992;6.796;2023-03-01T16:08:13;18.98;;;15.98;;
54125;SDS011;40360;52.992;6.796;2023-03-01T16:10:39;17.40;;;14.73;;
54125;SDS011;40360;52.992;6.796;2023-03-01T16:13:08;17.77;;;15.65;;
54125;SDS011;40360;52.992;6.796;2023-03-01T16:15:35;19.05;;;15.30;;
54125;SDS011;40360;52.992;6.796;2023-03-01T16:18:00;21.25;;;17.70;;
54125;SDS011;40360;52.992;6.796;2023-03-01T16:20:27;22.35;;;18.20;;
54125;SDS011;40360;52.992;6.796;2023-03-01T16:22:54;17.90;;;15.20;;
54125;SDS011;40360;52.992;6.796;2023-03-01T16:25:22;20.15;;;17.35;;
54125;SDS011;40360;52.992;6.796;2023-03-01T16:27:49;23.33;;;18.10;;
54125;SDS011;40360;52.992;6.796;2023-03-01T16:30:16;21.02;;;17.35;;
54125;SDS011;40360;52.992;6.796;2023-03-01T16:32:44;19.45;;;15.73;;
54125;SDS011;40360;52.992;6.796;2023-03-01T16:35:12;18.33;;;15.88;;
54125;SDS011;40360;52.992;6.796;2023-03-01T16:37:39;21.27;;;15.68;;
54125;SDS011;40360;52.992;6.796;2023-03-01T16:40:07;19.77;;;16.52;;
54125;SDS011;40360;52.992;6.796;2023-03-01T16:42:49;18.90;;;16.25;;
54125;SDS011;40360;52.992;6.796;2023-03-01T16:45:15;23.55;;;16.88;;
54125;SDS011;40360;52.992;6.796;2023-03-01T16:47:41;22.92;;;16.98;;
54125;SDS011;40360;52.992;6.796;2023-03-01T16:50:07;24.05;;;18.92;;
54125;SDS011;40360;52.992;6.796;2023-03-01T16:52:34;23.83;;;19.00;;
54125;SDS011;40360;52.992;6.796;2023-03-01T16:54:59;21.45;;;17.73;;
54125;SDS011;40360;52.992;6.796;2023-03-01T16:57:26;26.45;;;18.83;;